Time;durP1;ratioP1;P1;durP2;ratioP2;P2;SDS_P1;SDS_P2;PMS_P1;PMS_P2;Temp;Humidity;BMP_temperature;BMP_pressure;BME280_temperature;BME280_humidity;BME280_pressure;Samples;Min_cycle;Max_cycle;Signal;HPM_P1;HPM_P2
2022/12/27 15:23:42;;;;;;;9.93;6.43;;;;;;;6.54;67.25;100531.55;2403072;81;28117;-77
2022/12/27 15:27:40;;;;;;;13.80;6.08;;;;;;;6.54;67.27;100528.09;2285877;86;25316;-78
2022/12/27 15:31:51;;;;;;;9.23;4.85;;;;;;;6.65;67.24;100537.22;2286854;82;25776;-79
2022/12/27 15:35:43;;;;;;;14.45;4.17;;;;;;;6.85;67.18;100536.71;2283928;86;26395;-78
2022/12/27 15:39:34;;;;;;;13.38;5.70;;;;;;;7.10;67.13;100549.86;2232073;86;26078;-79
2022/12/27 15:43:21;;;;;;;17.57;5.72;;;;;;;7.56;71.00;100536.52;2253736;87;25800;-79
2022/12/27 15:47:08;;;;;;;10.43;3.87;;;;;;;8.36;73.67;100532.50;2231109;87;25892;-80
2022/12/27 15:51:15;;;;;;;12.05;4.25;;;;;;;8.71;71.68;100525.08;2255109;86;26289;-79
2022/12/27 15:55:09;;;;;;;11.90;3.83;;;;;;;8.87;70.48;100530.34;2255234;86;26388;-79
2022/12/27 15:58:39;;;;;;;10.03;3.33;;;;;;;8.94;69.51;100538.42;2255316;86;25806;-79
2022/12/27 16:03:01;;;;;;;;;;;;;;;;;;;;;
2022/12/27 16:06:51;;;;;;;8.88;2.92;;;;;;;9.05;68.32;100542.66;2238765;87;25686;-79
2022/12/27 16:10:47;;;;;;;5.42;2.95;;;;;;;9.10;67.67;100548.00;2196563;90;25882;-79
2022/12/27 16:14:48;;;;;;;8.53;3.08;;;;;;;9.13;67.21;100554.60;2255156;87;25749;-79
2022/12/27 16:18:38;;;;;;;6.30;3.00;;;;;;;9.16;66.58;100558.60;2346397;84;25794;-79
2022/12/27 16:23:06;;;;;;;7.47;3.55;;;;;;;9.15;66.13;100552.52;2349066;82;25854;-78
2022/12/27 16:26:40;;;;;;;;;;;;;;;;;;;;;
2022/12/27 16:30:09;;;;;;;7.20;3.65;;;;;;;9.13;65.23;100555.48;2196921;90;25687;-78
2022/12/27 16:33:38;;;;;;;9.10;4.28;;;;;;;9.40;67.58;100552.86;2147825;91;25771;-80
2022/12/27 16:37:27;;;;;;;8.38;3.20;;;;;;;9.51;66.50;100551.01;2147027;88;25344;-82
2022/12/27 16:41:03;;;;;;;8.45;3.85;;;;;;;9.51;65.75;100561.42;2128092;91;25811;-80
2022/12/27 16:44:42;;;;;;;7.58;3.27;;;;;;;9.46;65.12;100554.78;2089559;93;25757;-81
2022/12/27 16:48:31;;;;;;;6.87;3.90;;;;;;;9.43;64.60;100561.19;2092977;93;25736;-81
2022/12/27 16:52:03;;;;;;;10.85;3.75;;;;;;;9.41;64.17;100565.45;2112191;91;26469;-79
2022/12/27 16:56:24;;;;;;;8.13;2.85;;;;;;;9.70;68.64;100558.12;2088899;91;25952;-79
2022/12/27 17:00:28;;;;;;;7.20;3.20;;;;;;;10.33;68.84;100570.39;2161579;91;25791;-83
2022/12/27 17:04:07;;;;;;;10.88;3.95;;;;;;;10.62;67.34;100584.61;2171532;91;25727;-86
2022/12/27 17:08:08;;;;;;;6.62;3.08;;;;;;;10.15;63.92;100577.64;2105584;91;25730;-85
2022/12/27 17:11:50;;;;;;;5.55;3.10;;;;;;;9.75;62.98;100583.41;2114516;92;25766;-85
2022/12/27 17:15:23;;;;;;;11.57;3.10;;;;;;;9.35;62.29;100579.17;2134162;92;25827;-83
2022/12/27 17:19:34;;;;;;;13.32;3.92;;;;;;;9.13;61.96;100577.59;2131935;92;26335;-84
2022/12/27 17:27:58;;;;;;;6.92;2.37;;;;;;;8.82;61.37;100583.50;2097195;91;25605;-82
2022/12/27 17:32:13;;;;;;;5.35;2.55;;;;;;;8.64;61.41;100586.75;2106954;92;25167;-82
2022/12/27 17:36:26;;;;;;;5.47;3.35;;;;;;;8.58;61.20;100589.16;2012246;94;25261;-82
2022/12/27 17:40:14;;;;;;;6.15;3.10;;;;;;;8.43;61.10;100582.58;2015185;92;25698;-82
2022/12/27 17:48:24;;;;;;;10.63;4.15;;;;;;;8.27;60.95;100601.91;1988042;99;25820;-79
2022/12/27 18:00:00;;;;;;;4.35;2.50;;;;;;;8.84;61.44;100603.95;2043127;94;25595;-77
2022/12/27 18:03:41;;;;;;;4.28;2.72;;;;;;;9.03;61.16;100617.13;2059898;90;25560;-78
2022/12/27 18:07:08;;;;;;;6.60;2.75;;;;;;;9.14;60.93;100609.26;2048434;94;25566;-77
2022/12/27 18:10:44;;;;;;;5.47;2.90;;;;;;;9.23;60.70;100610.88;2066149;95;25692;-76
2022/12/27 18:18:26;;;;;;;5.55;2.37;;;;;;;9.37;60.35;100619.12;2018997;97;25672;-78
2022/12/27 18:21:59;;;;;;;6.65;2.52;;;;;;;9.86;63.93;100623.69;2130543;86;25737;-76
2022/12/27 18:25:43;;;;;;;7.62;2.87;;;;;;;10.01;63.26;100628.46;2187987;84;25527;-77
2022/12/27 18:29:17;;;;;;;5.22;2.85;;;;;;;9.99;63.05;100623.61;2292018;86;25741;-79
2022/12/27 18:32:44;;;;;;;8.48;3.20;;;;;;;10.12;63.71;100629.65;2294245;85;25642;-78
2022/12/27 18:36:36;;;;;;;4.70;2.62;;;;;;;10.20;63.67;100632.08;2338947;82;25564;-78
2022/12/27 18:40:12;;;;;;;6.90;2.47;;;;;;;10.21;63.59;100632.53;2349488;84;25534;-80
2022/12/27 18:43:48;;;;;;;6.20;2.55;;;;;;;10.27;63.50;100644.48;2351606;82;25414;-79
2022/12/27 18:47:31;;;;;;;3.77;2.25;;;;;;;10.31;63.68;100640.23;2362454;83;25486;-79
2022/12/27 18:51:04;;;;;;;4.00;2.47;;;;;;;10.36;63.06;100649.96;2268135;85;25514;-79
2022/12/27 18:55:09;;;;;;;;;;;;;;;;;;;;;
2022/12/27 19:02:44;;;;;;;5.30;2.60;;;;;;;10.68;62.96;100648.66;2292729;85;25495;-79
2022/12/27 19:06:17;;;;;;;7.15;2.17;;;;;;;10.68;62.96;100648.66;2246241;86;25624;-79
2022/12/27 19:09:43;;;;;;;4.35;2.72;;;;;;;10.76;63.14;100660.59;2339702;84;25532;-79
2022/12/27 19:13:26;;;;;;;6.13;2.40;;;;;;;10.83;63.11;100670.34;2336893;83;25438;-80
2022/12/27 19:17:24;;;;;;;5.53;3.00;;;;;;;10.86;63.12;100671.31;2337350;83;25502;-83
2022/12/27 19:21:06;;;;;;;6.58;2.42;;;;;;;10.88;63.00;100675.29;2276611;84;25667;-82
2022/12/27 19:24:39;;;;;;;3.50;2.17;;;;;;;10.77;63.00;100646.74;2310798;83;25642;-79
2022/12/27 19:28:16;;;;;;;6.33;2.52;;;;;;;10.90;62.98;100671.01;2327578;85;25703;-81
2022/12/27 19:31:42;;;;;;;3.70;2.40;;;;;;;10.92;62.91;100667.13;2312337;83;25545;-76
2022/12/27 19:35:12;;;;;;;4.55;2.72;;;;;;;10.91;62.89;100667.97;2287394;86;25517;-76
2022/12/27 19:38:34;;;;;;;3.65;2.52;;;;;;;10.93;62.63;100670.18;2274988;86;25560;-77
2022/12/27 19:42:05;;;;;;;5.47;2.90;;;;;;;10.93;62.70;100674.09;2286977;86;25484;-78
2022/12/27 19:45:28;;;;;;;5.62;2.65;;;;;;;10.80;62.56;100646.80;2287225;86;25562;-77
2022/12/27 19:49:15;;;;;;;4.28;2.52;;;;;;;10.92;62.44;100673.64;2287444;86;25486;-78
2022/12/27 19:53:00;;;;;;;4.97;2.75;;;;;;;10.92;62.57;100680.16;2324825;84;25674;-78
2022/12/27 19:56:38;;;;;;;6.72;3.27;;;;;;;10.91;62.10;100685.80;2215291;86;25535;-77
2022/12/27 20:00:22;;;;;;;6.62;2.65;;;;;;;10.88;61.97;100690.52;2212842;88;25618;-78
2022/12/27 20:04:00;;;;;;;3.87;2.37;;;;;;;10.86;61.83;100696.09;2165402;90;25527;-78
2022/12/27 20:07:33;;;;;;;6.33;3.12;;;;;;;10.86;61.56;100705.22;2175455;91;25575;-83
2022/12/27 20:11:05;;;;;;;5.20;3.30;;;;;;;10.73;61.60;100688.80;2192169;87;25858;-79
2022/12/27 20:14:53;;;;;;;5.15;2.70;;;;;;;10.85;61.49;100708.68;2217423;89;25517;-79
2022/12/27 20:18:37;;;;;;;3.60;2.22;;;;;;;10.84;61.30;100713.45;2146546;92;25634;-81
2022/12/27 20:22:09;;;;;;;4.95;2.83;;;;;;;10.82;61.06;100713.81;2144446;90;25595;-79
2022/12/27 20:25:43;;;;;;;5.03;2.37;;;;;;;10.80;60.97;100713.30;2146378;90;25601;-80
2022/12/27 20:29:07;;;;;;;6.78;2.75;;;;;;;10.78;60.92;100715.00;2146659;90;25570;-78
2022/12/27 20:32:37;;;;;;;6.58;2.72;;;;;;;10.75;60.83;100715.79;2181314;87;25788;-78
2022/12/27 20:36:07;;;;;;;3.42;2.30;;;;;;;10.74;60.71;100728.37;2257536;87;25580;-78
2022/12/27 20:39:33;;;;;;;9.60;2.80;;;;;;;10.71;60.66;100726.98;2257478;87;25497;-79
